sensor_id;sensor_type;location;lat;lon;timestamp;pressure;altitude;pressure_sealevel;temperature;humidity
15314;BME280;7757;52.626;4.746;2023-04-05T00:01:09;102453.47;;;16.44;54.93
15314;BME280;7757;52.626;4.746;2023-04-05T00:03:58;102453.00;;;16.40;55.12
15314;BME280;7757;52.626;4.746;2023-04-05T00:06:43;102449.47;;;16.40;54.88
15314;BME280;7757;52.626;4.746;2023-04-05T00:09:29;102452.81;;;16.42;55.48
15314;BME280;7757;52.626;4.746;2023-04-05T00:12:15;102444.06;;;16.40;55.02
15314;BME280;7757;52.626;4.746;2023-04-05T00:15:05;102439.03;;;16.37;55.17
15314;BME280;7757;52.626;4.746;2023-04-05T00:17:51;102438.38;;;16.35;54.93
15314;BME280;7757;52.626;4.746;2023-04-05T00:20:37;102434.84;;;16.34;55.50
15314;BME280;7757;52.626;4.746;2023-04-05T00:23:22;102430.06;;;16.36;55.21
15314;BME280;7757;52.626;4.746;2023-04-05T00:26:10;102421.13;;;16.36;55.67
15314;BME280;7757;52.626;4.746;2023-04-05T00:28:55;102415.81;;;16.28;55.99
15314;BME280;7757;52.626;4.746;2023-04-05T00:31:42;102416.31;;;16.31;54.76
15314;BME280;7757;52.626;4.746;2023-04-05T00:34:27;102418.72;;;16.26;55.50
15314;BME280;7757;52.626;4.746;2023-04-05T00:37:12;102415.66;;;16.29;55.30
15314;BME280;7757;52.626;4.746;2023-04-05T00:39:58;102414.81;;;16.29;55.36
15314;BME280;7757;52.626;4.746;2023-04-05T00:42:43;102414.81;;;16.29;55.00
15314;BME280;7757;52.626;4.746;2023-04-05T00:45:28;102407.44;;;16.23;55.80
15314;BME280;7757;52.626;4.746;2023-04-05T00:48:15;102405.41;;;16.25;55.35
15314;BME280;7757;52.626;4.746;2023-04-05T00:51:01;102405.59;;;16.23;54.86
15314;BME280;7757;52.626;4.746;2023-04-05T00:53:46;102406.44;;;16.24;55.41
15314;BME280;7757;52.626;4.746;2023-04-05T00:56:36;102392.34;;;16.13;55.41
15314;BME280;7757;52.626;4.746;2023-04-05T00:59:22;102403.06;;;16.22;55.30
15314;BME280;7757;52.626;4.746;2023-04-05T01:02:13;102386.75;;;16.15;55.17
15314;BME280;7757;52.626;4.746;2023-04-05T01:05:07;102397.03;;;16.19;55.49
15314;BME280;7757;52.626;4.746;2023-04-05T01:08:03;102393.47;;;16.19;55.10
15314;BME280;7757;52.626;4.746;2023-04-05T01:10:54;102392.00;;;16.16;54.88
15314;BME280;7757;52.626;4.746;2023-04-05T01:13:44;102391.34;;;16.14;54.99
15314;BME280;7757;52.626;4.746;2023-04-05T01:16:29;102395.06;;;16.13;55.43
15314;BME280;7757;52.626;4.746;2023-04-05T01:19:15;102389.66;;;16.13;54.74
15314;BME280;7757;52.626;4.746;2023-04-05T01:22:12;102388.66;;;16.14;54.78
15314;BME280;7757;52.626;4.746;2023-04-05T01:25:24;102374.78;;;16.03;55.25
15314;BME280;7757;52.626;4.746;2023-04-05T01:28:39;102375.88;;;16.08;55.76
15314;BME280;7757;52.626;4.746;2023-04-05T01:31:36;102367.22;;;15.98;54.85
15314;BME280;7757;52.626;4.746;2023-04-05T01:34:32;102378.13;;;16.05;55.04
15314;BME280;7757;52.626;4.746;2023-04-05T01:37:19;102375.03;;;16.08;55.36
15314;BME280;7757;52.626;4.746;2023-04-05T01:40:08;102362.47;;;16.00;55.63
15314;BME280;7757;52.626;4.746;2023-04-05T01:42:53;102364.78;;;16.03;55.84
15314;BME280;7757;52.626;4.746;2023-04-05T01:45:39;102366.09;;;16.07;55.69
15314;BME280;7757;52.626;4.746;2023-04-05T01:48:26;102361.06;;;16.04;55.32
15314;BME280;7757;52.626;4.746;2023-04-05T01:51:11;102349.81;;;16.01;55.19
15314;BME280;7757;52.626;4.746;2023-04-05T01:53:57;102354.19;;;16.02;55.23
15314;BME280;7757;52.626;4.746;2023-04-05T01:56:42;102352.50;;;16.01;55.58
15314;BME280;7757;52.626;4.746;2023-04-05T01:59:27;102347.09;;;16.01;55.82
15314;BME280;7757;52.626;4.746;2023-04-05T02:02:13;102341.06;;;15.99;54.52
15314;BME280;7757;52.626;4.746;2023-04-05T02:04:59;102339.38;;;15.98;55.75
15314;BME280;7757;52.626;4.746;2023-04-05T02:07:45;102323.28;;;15.90;55.71
15314;BME280;7757;52.626;4.746;2023-04-05T02:10:30;102328.47;;;15.91;54.85
15314;BME280;7757;52.626;4.746;2023-04-05T02:13:15;102330.44;;;15.97;55.38
15314;BME280;7757;52.626;4.746;2023-04-05T02:16:01;102332.31;;;15.97;54.65
15314;BME280;7757;52.626;4.746;2023-04-05T02:18:46;102323.09;;;15.91;55.61
15314;BME280;7757;52.626;4.746;2023-04-05T02:21:35;102320.84;;;15.95;55.65
15314;BME280;7757;52.626;4.746;2023-04-05T02:24:20;102316.41;;;15.87;55.22
15314;BME280;7757;52.626;4.746;2023-04-05T02:27:06;102309.31;;;15.86;54.95
15314;BME280;7757;52.626;4.746;2023-04-05T02:29:51;102321.22;;;15.92;55.13
15314;BME280;7757;52.626;4.746;2023-04-05T02:32:38;102308.78;;;15.91;54.97
15314;BME280;7757;52.626;4.746;2023-04-05T02:35:25;102305.41;;;15.89;54.99
15314;BME280;7757;52.626;4.746;2023-04-05T02:38:11;102305.59;;;15.87;55.43
15314;BME280;7757;52.626;4.746;2023-04-05T02:40:57;102303.91;;;15.86;55.34
15314;BME280;7757;52.626;4.746;2023-04-05T02:43:42;102305.50;;;15.81;55.63
15314;BME280;7757;52.626;4.746;2023-04-05T02:46:27;102310.72;;;15.82;55.57
15314;BME280;7757;52.626;4.746;2023-04-05T02:49:13;102311.38;;;15.84;54.89
15314;BME280;7757;52.626;4.746;2023-04-05T02:51:58;102308.19;;;15.81;55.19
15314;BME280;7757;52.626;4.746;2023-04-05T02:54:45;102314.06;;;15.84;55.08
15314;BME280;7757;52.626;4.746;2023-04-05T02:57:30;102307.19;;;15.82;55.10
15314;BME280;7757;52.626;4.746;2023-04-05T03:00:16;102305.22;;;15.76;54.67
15314;BME280;7757;52.626;4.746;2023-04-05T03:03:01;102303.66;;;15.81;55.39
15314;BME280;7757;52.626;4.746;2023-04-05T03:05:47;102302.31;;;15.77;54.71
15314;BME280;7757;52.626;4.746;2023-04-05T03:08:32;102298.78;;;15.77;54.88
15314;BME280;7757;52.626;4.746;2023-04-05T03:11:21;102292.56;;;15.76;54.59
15314;BME280;7757;52.626;4.746;2023-04-05T03:14:06;102285.03;;;15.72;54.91
15314;BME280;7757;52.626;4.746;2023-04-05T03:16:51;102278.78;;;15.71;55.45
15314;BME280;7757;52.626;4.746;2023-04-05T03:19:37;102286.50;;;15.74;54.48
15314;BME280;7757;52.626;4.746;2023-04-05T03:22:22;102277.66;;;15.66;55.02
15314;BME280;7757;52.626;4.746;2023-04-05T03:25:08;102290.41;;;15.72;54.63
15314;BME280;7757;52.626;4.746;2023-04-05T03:27:55;102274.13;;;15.65;54.96
15314;BME280;7757;52.626;4.746;2023-04-05T03:30:41;102285.22;;;15.70;54.21
15314;BME280;7757;52.626;4.746;2023-04-05T03:33:26;102283.53;;;15.69;54.25
15314;BME280;7757;52.626;4.746;2023-04-05T03:36:12;102267.91;;;15.65;55.11
15314;BME280;7757;52.626;4.746;2023-04-05T03:38:59;102276.28;;;15.70;54.21
15314;BME280;7757;52.626;4.746;2023-04-05T03:41:44;102273.75;;;15.68;54.65
15314;BME280;7757;52.626;4.746;2023-04-05T03:44:31;102278.72;;;15.65;54.52
15314;BME280;7757;52.626;4.746;2023-04-05T03:47:16;102280.56;;;15.64;54.29
15314;BME280;7757;52.626;4.746;2023-04-05T03:50:02;102274.13;;;15.65;54.58
15314;BME280;7757;52.626;4.746;2023-04-05T03:52:48;102271.63;;;15.63;54.46
15314;BME280;7757;52.626;4.746;2023-04-05T03:55:33;102268.28;;;15.61;54.93
15314;BME280;7757;52.626;4.746;2023-04-05T03:58:19;102274.31;;;15.63;54.56
15314;BME280;7757;52.626;4.746;2023-04-05T04:01:06;102263.91;;;15.60;54.71
15314;BME280;7757;52.626;4.746;2023-04-05T04:03:52;102263.25;;;15.58;55.30
15314;BME280;7757;52.626;4.746;2023-04-05T04:06:37;102272.00;;;15.60;54.73
15314;BME280;7757;52.626;4.746;2023-04-05T04:09:23;102273.00;;;15.59;54.48
15314;BME280;7757;52.626;4.746;2023-04-05T04:12:08;102265.75;;;15.60;54.57
15314;BME280;7757;52.626;4.746;2023-04-05T04:14:54;102265.97;;;15.58;54.27
15314;BME280;7757;52.626;4.746;2023-04-05T04:17:41;102261.56;;;15.57;55.01
15314;BME280;7757;52.626;4.746;2023-04-05T04:20:26;102255.91;;;15.52;54.57
15314;BME280;7757;52.626;4.746;2023-04-05T04:23:11;102256.53;;;15.54;55.28
15314;BME280;7757;52.626;4.746;2023-04-05T04:25:57;102261.09;;;15.54;54.13
15314;BME280;7757;52.626;4.746;2023-04-05T04:28:44;102258.59;;;15.52;54.75
15314;BME280;7757;52.626;4.746;2023-04-05T04:31:29;102255.59;;;15.47;54.69
15314;BME280;7757;52.626;4.746;2023-04-05T04:34:17;102258.13;;;15.49;54.26
15314;BME280;7757;52.626;4.746;2023-04-05T04:37:03;102240.78;;;15.43;53.71
15314;BME280;7757;52.626;4.746;2023-04-05T04:39:50;102261.66;;;15.49;54.81
15314;BME280;7757;52.626;4.746;2023-04-05T04:42:35;102258.13;;;15.49;54.98
15314;BME280;7757;52.626;4.746;2023-04-05T04:45:21;102263.69;;;15.47;54.33
15314;BME280;7757;52.626;4.746;2023-04-05T04:48:06;102255.91;;;15.44;54.37
15314;BME280;7757;52.626;4.746;2023-04-05T04:50:55;102253.44;;;15.43;55.02
15314;BME280;7757;52.626;4.746;2023-04-05T04:53:41;102262.00;;;15.46;54.16
15314;BME280;7757;52.626;4.746;2023-04-05T04:56:26;102260.16;;;15.47;53.89
15314;BME280;7757;52.626;4.746;2023-04-05T04:59:11;102249.41;;;15.39;54.62
15314;BME280;7757;52.626;4.746;2023-04-05T05:01:57;102252.59;;;15.42;54.58
15314;BME280;7757;52.626;4.746;2023-04-05T05:04:42;102253.59;;;15.41;54.26
15314;BME280;7757;52.626;4.746;2023-04-05T05:07:29;102261.50;;;15.43;54.36
15314;BME280;7757;52.626;4.746;2023-04-05T05:10:15;102253.59;;;15.41;53.94
15314;BME280;7757;52.626;4.746;2023-04-05T05:13:00;102262.16;;;15.45;54.04
15314;BME280;7757;52.626;4.746;2023-04-05T05:15:45;102245.22;;;15.36;54.25
15314;BME280;7757;52.626;4.746;2023-04-05T05:18:31;102255.13;;;15.44;54.65
15314;BME280;7757;52.626;4.746;2023-04-05T05:21:16;102254.44;;;15.42;54.58
15314;BME280;7757;52.626;4.746;2023-04-05T05:24:04;102263.19;;;15.44;54.25
15314;BME280;7757;52.626;4.746;2023-04-05T05:26:51;102256.28;;;15.41;54.85
15314;BME280;7757;52.626;4.746;2023-04-05T05:29:36;102248.13;;;15.35;54.35
15314;BME280;7757;52.626;4.746;2023-04-05T05:32:21;102258.63;;;15.44;53.70
15314;BME280;7757;52.626;4.746;2023-04-05T05:35:08;102269.41;;;15.44;53.99
15314;BME280;7757;52.626;4.746;2023-04-05T05:37:53;102267.91;;;15.50;54.19
15314;BME280;7757;52.626;4.746;2023-04-05T05:40:39;102260.44;;;15.52;53.91
15314;BME280;7757;52.626;4.746;2023-04-05T05:43:25;102270.69;;;15.56;53.82
15314;BME280;7757;52.626;4.746;2023-04-05T05:46:10;102262.91;;;15.61;54.26
15314;BME280;7757;52.626;4.746;2023-04-05T05:48:56;102269.56;;;15.66;53.35
15314;BME280;7757;52.626;4.746;2023-04-05T05:51:41;102259.16;;;15.62;53.40
15314;BME280;7757;52.626;4.746;2023-04-05T05:54:26;102265.66;;;15.68;53.30
15314;BME280;7757;52.626;4.746;2023-04-05T05:57:13;102271.38;;;15.73;53.75
15314;BME280;7757;52.626;4.746;2023-04-05T05:59:58;102269.31;;;15.75;53.73
15314;BME280;7757;52.626;4.746;2023-04-05T06:02:44;102270.53;;;15.87;53.10
15314;BME280;7757;52.626;4.746;2023-04-05T06:05:29;102269.78;;;15.93;52.90
15314;BME280;7757;52.626;4.746;2023-04-05T06:08:14;102271.06;;;15.97;53.38
15314;BME280;7757;52.626;4.746;2023-04-05T06:11:00;102268.00;;;16.00;53.69
15314;BME280;7757;52.626;4.746;2023-04-05T06:13:47;102261.59;;;16.01;52.95
15314;BME280;7757;52.626;4.746;2023-04-05T06:16:32;102260.69;;;16.09;52.51
15314;BME280;7757;52.626;4.746;2023-04-05T06:19:18;102257.78;;;16.10;53.16
15314;BME280;7757;52.626;4.746;2023-04-05T06:22:03;102265.75;;;16.18;52.56
15314;BME280;7757;52.626;4.746;2023-04-05T06:24:48;102274.53;;;16.21;52.38
15314;BME280;7757;52.626;4.746;2023-04-05T06:27:34;102269.19;;;16.27;53.19
15314;BME280;7757;52.626;4.746;2023-04-05T06:30:21;102260.06;;;16.43;52.71
15314;BME280;7757;52.626;4.746;2023-04-05T06:33:06;102262.56;;;16.59;51.55
15314;BME280;7757;52.626;4.746;2023-04-05T06:35:52;102262.53;;;16.73;51.75
15314;BME280;7757;52.626;4.746;2023-04-05T06:38:37;102258.47;;;16.84;50.94
15314;BME280;7757;52.626;4.746;2023-04-05T06:41:23;102257.97;;;16.95;50.88
15314;BME280;7757;52.626;4.746;2023-04-05T06:44:08;102258.72;;;17.10;50.94
15314;BME280;7757;52.626;4.746;2023-04-05T06:46:55;102250.06;;;17.15;50.08
15314;BME280;7757;52.626;4.746;2023-04-05T06:49:40;102253.44;;;17.23;50.63
15314;BME280;7757;52.626;4.746;2023-04-05T06:52:26;102253.75;;;17.35;50.65
15314;BME280;7757;52.626;4.746;2023-04-05T06:55:11;102246.91;;;17.39;50.50
15314;BME280;7757;52.626;4.746;2023-04-05T06:57:56;102258.84;;;17.51;50.23
15314;BME280;7757;52.626;4.746;2023-04-05T07:00:42;102252.50;;;17.59;49.94
15314;BME280;7757;52.626;4.746;2023-04-05T07:03:28;102246.09;;;17.66;50.07
15314;BME280;7757;52.626;4.746;2023-04-05T07:06:14;102254.66;;;17.70;49.60
15314;BME280;7757;52.626;4.746;2023-04-05T07:09:00;102253.91;;;17.82;49.63
15314;BME280;7757;52.626;4.746;2023-04-05T07:11:46;102248.78;;;17.94;49.10
15314;BME280;7757;52.626;4.746;2023-04-05T07:14:32;102251.13;;;18.10;49.48
15314;BME280;7757;52.626;4.746;2023-04-05T07:17:18;102249.63;;;18.01;49.06
15314;BME280;7757;52.626;4.746;2023-04-05T07:20:06;102255.09;;;18.08;48.96
15314;BME280;7757;52.626;4.746;2023-04-05T07:22:52;102250.31;;;18.10;48.85
15314;BME280;7757;52.626;4.746;2023-04-05T07:25:38;102253.00;;;18.10;48.56
15314;BME280;7757;52.626;4.746;2023-04-05T07:28:23;102248.44;;;18.10;48.96
15314;BME280;7757;52.626;4.746;2023-04-05T07:31:09;102250.75;;;18.13;48.98
15314;BME280;7757;52.626;4.746;2023-04-05T07:33:54;102247.63;;;18.16;49.32
15314;BME280;7757;52.626;4.746;2023-04-05T07:36:42;102237.06;;;18.21;48.81
15314;BME280;7757;52.626;4.746;2023-04-05T07:39:27;102233.69;;;18.19;48.81
15314;BME280;7757;52.626;4.746;2023-04-05T07:42:12;102232.25;;;18.23;48.81
15314;BME280;7757;52.626;4.746;2023-04-05T07:44:58;102242.28;;;18.29;48.81
15314;BME280;7757;52.626;4.746;2023-04-05T07:47:43;102242.50;;;18.34;48.57
15314;BME280;7757;52.626;4.746;2023-04-05T07:50:28;102243.13;;;18.36;48.50
15314;BME280;7757;52.626;4.746;2023-04-05T07:53:15;102241.50;;;18.42;48.31
15314;BME280;7757;52.626;4.746;2023-04-05T07:56:02;102232.31;;;18.43;48.39
15314;BME280;7757;52.626;4.746;2023-04-05T07:58:48;102239.00;;;18.47;47.73
15314;BME280;7757;52.626;4.746;2023-04-05T08:01:34;102235.53;;;18.53;47.84
15314;BME280;7757;52.626;4.746;2023-04-05T08:04:19;102238.44;;;18.58;47.93
15314;BME280;7757;52.626;4.746;2023-04-05T08:07:05;102234.91;;;18.58;47.79
15314;BME280;7757;52.626;4.746;2023-04-05T08:09:52;102230.75;;;18.62;47.82
15314;BME280;7757;52.626;4.746;2023-04-05T08:12:40;102239.94;;;18.67;47.66
15314;BME280;7757;52.626;4.746;2023-04-05T08:15:25;102239.31;;;18.72;47.43
15314;BME280;7757;52.626;4.746;2023-04-05T08:18:11;102230.56;;;18.76;47.34
15314;BME280;7757;52.626;4.746;2023-04-05T08:20:56;102224.13;;;18.77;47.37
15314;BME280;7757;52.626;4.746;2023-04-05T08:23:41;102228.50;;;18.85;47.26
15314;BME280;7757;52.626;4.746;2023-04-05T08:26:28;102229.53;;;18.90;46.90
15314;BME280;7757;52.626;4.746;2023-04-05T08:29:14;102221.41;;;18.90;46.97
15314;BME280;7757;52.626;4.746;2023-04-05T08:31:59;102231.03;;;19.00;46.97
15314;BME280;7757;52.626;4.746;2023-04-05T08:34:44;102225.59;;;19.00;47.21
15314;BME280;7757;52.626;4.746;2023-04-05T08:37:33;102231.44;;;19.03;47.10
15314;BME280;7757;52.626;4.746;2023-04-05T08:40:19;102217.28;;;19.01;47.12
15314;BME280;7757;52.626;4.746;2023-04-05T08:43:10;102220.38;;;19.05;46.56
15314;BME280;7757;52.626;4.746;2023-04-05T08:45:58;102226.22;;;19.08;46.58
15314;BME280;7757;52.626;4.746;2023-04-05T08:48:44;102224.13;;;19.10;46.85
15314;BME280;7757;52.626;4.746;2023-04-05T08:51:30;102221.41;;;19.10;46.87
15314;BME280;7757;52.626;4.746;2023-04-05T08:54:16;102208.50;;;19.06;46.73
15314;BME280;7757;52.626;4.746;2023-04-05T08:57:02;102208.06;;;19.02;46.45
15314;BME280;7757;52.626;4.746;2023-04-05T08:59:50;102211.44;;;19.04;46.61
15314;BME280;7757;52.626;4.746;2023-04-05T09:02:36;102207.44;;;19.00;47.05
15314;BME280;7757;52.626;4.746;2023-04-05T09:05:22;102202.44;;;18.90;46.53
15314;BME280;7757;52.626;4.746;2023-04-05T09:08:08;102202.84;;;18.94;46.81
15314;BME280;7757;52.626;4.746;2023-04-05T09:10:53;102212.44;;;18.90;47.21
15314;BME280;7757;52.626;4.746;2023-04-05T09:13:39;102207.66;;;18.85;46.99
15314;BME280;7757;52.626;4.746;2023-04-05T09:16:26;102218.69;;;18.77;47.01
15314;BME280;7757;52.626;4.746;2023-04-05T09:19:12;102216.00;;;18.77;46.78
15314;BME280;7757;52.626;4.746;2023-04-05T09:21:59;102205.97;;;18.71;46.79
15314;BME280;7757;52.626;4.746;2023-04-05T09:24:45;102195.94;;;18.65;46.97
15314;BME280;7757;52.626;4.746;2023-04-05T09:27:31;102205.31;;;18.69;47.08
15314;BME280;7757;52.626;4.746;2023-04-05T09:30:20;102201.16;;;18.67;47.02
15314;BME280;7757;52.626;4.746;2023-04-05T09:33:07;102207.41;;;18.67;47.18
15314;BME280;7757;52.626;4.746;2023-04-05T09:35:54;102201.38;;;18.65;47.28
15314;BME280;7757;52.626;4.746;2023-04-05T09:38:43;102185.94;;;18.59;47.76
15314;BME280;7757;52.626;4.746;2023-04-05T09:41:29;102186.78;;;18.60;47.32
15314;BME280;7757;52.626;4.746;2023-04-05T09:44:14;102194.50;;;18.63;47.74
15314;BME280;7757;52.626;4.746;2023-04-05T09:47:14;102198.84;;;18.64;47.42
15314;BME280;7757;52.626;4.746;2023-04-05T09:50:01;102186.78;;;18.60;47.42
15314;BME280;7757;52.626;4.746;2023-04-05T09:52:50;102185.28;;;18.57;47.77
15314;BME280;7757;52.626;4.746;2023-04-05T09:55:35;102181.75;;;18.57;48.00
15314;BME280;7757;52.626;4.746;2023-04-05T09:58:21;102186.97;;;18.58;47.40
15314;BME280;7757;52.626;4.746;2023-04-05T10:01:07;102186.78;;;18.60;47.50
15314;BME280;7757;52.626;4.746;2023-04-05T10:03:53;102174.84;;;18.54;47.54
15314;BME280;7757;52.626;4.746;2023-04-05T10:06:40;102184.66;;;18.55;47.97
15314;BME280;7757;52.626;4.746;2023-04-05T10:09:26;102188.22;;;18.56;47.86
15314;BME280;7757;52.626;4.746;2023-04-05T10:12:23;102180.69;;;18.51;47.98
15314;BME280;7757;52.626;4.746;2023-04-05T10:15:10;102181.53;;;18.52;47.42
15314;BME280;7757;52.626;4.746;2023-04-05T10:18:02;102182.38;;;18.52;47.66
15314;BME280;7757;52.626;4.746;2023-04-05T10:20:49;102167.72;;;18.47;47.45
15314;BME280;7757;52.626;4.746;2023-04-05T10:23:37;102174.47;;;18.51;47.71
15314;BME280;7757;52.626;4.746;2023-04-05T10:26:36;102169.41;;;18.48;47.88
15314;BME280;7757;52.626;4.746;2023-04-05T10:29:30;102162.31;;;18.47;48.19
15314;BME280;7757;52.626;4.746;2023-04-05T10:32:21;102163.56;;;18.44;47.81
15314;BME280;7757;52.626;4.746;2023-04-05T10:35:15;102161.28;;;18.41;48.02
15314;BME280;7757;52.626;4.746;2023-04-05T10:38:11;102160.00;;;18.37;48.70
15314;BME280;7757;52.626;4.746;2023-04-05T10:41:08;102152.28;;;18.34;48.24
15314;BME280;7757;52.626;4.746;2023-04-05T10:43:55;102151.25;;;18.35;47.79
15314;BME280;7757;52.626;4.746;2023-04-05T10:46:44;102149.78;;;18.32;48.25
15314;BME280;7757;52.626;4.746;2023-04-05T10:49:32;102157.06;;;18.32;48.23
15314;BME280;7757;52.626;4.746;2023-04-05T10:52:21;102155.22;;;18.32;47.88
15314;BME280;7757;52.626;4.746;2023-04-05T10:55:07;102149.13;;;18.30;48.16
15314;BME280;7757;52.626;4.746;2023-04-05T10:57:55;102146.25;;;18.32;48.32
15314;BME280;7757;52.626;4.746;2023-04-05T11:00:42;102151.03;;;18.30;48.15
15314;BME280;7757;52.626;4.746;2023-04-05T11:03:44;102152.69;;;18.31;47.97
15314;BME280;7757;52.626;4.746;2023-04-05T11:06:31;102148.94;;;18.32;48.28
15314;BME280;7757;52.626;4.746;2023-04-05T11:09:17;102142.91;;;18.30;48.59
15314;BME280;7757;52.626;4.746;2023-04-05T11:12:04;102132.91;;;18.24;48.57
15314;BME280;7757;52.626;4.746;2023-04-05T11:14:51;102133.31;;;18.27;48.40
15314;BME280;7757;52.626;4.746;2023-04-05T11:17:36;102137.91;;;18.27;48.16
15314;BME280;7757;52.626;4.746;2023-04-05T11:20:21;102134.34;;;18.26;48.10
15314;BME280;7757;52.626;4.746;2023-04-05T11:23:09;102132.25;;;18.28;48.31
15314;BME280;7757;52.626;4.746;2023-04-05T11:25:55;102131.44;;;18.28;48.40
15314;BME280;7757;52.626;4.746;2023-04-05T11:28:42;102120.81;;;18.26;48.49
15314;BME280;7757;52.626;4.746;2023-04-05T11:31:29;102132.09;;;18.30;48.30
15314;BME280;7757;52.626;4.746;2023-04-05T11:34:23;102131.25;;;18.29;48.34
15314;BME280;7757;52.626;4.746;2023-04-05T11:37:08;102127.69;;;18.29;48.49
15314;BME280;7757;52.626;4.746;2023-04-05T11:40:23;102124.97;;;18.29;48.47
15314;BME280;7757;52.626;4.746;2023-04-05T11:43:09;102109.38;;;18.24;48.30
15314;BME280;7757;52.626;4.746;2023-04-05T11:45:55;102119.16;;;18.32;48.46
15314;BME280;7757;52.626;4.746;2023-04-05T11:48:42;102103.94;;;18.24;47.82
15314;BME280;7757;52.626;4.746;2023-04-05T11:51:28;102099.75;;;18.28;48.56
15314;BME280;7757;52.626;4.746;2023-04-05T11:54:27;102091.44;;;18.23;48.18
15314;BME280;7757;52.626;4.746;2023-04-05T11:57:13;102101.88;;;18.33;48.09
15314;BME280;7757;52.626;4.746;2023-04-05T12:00:00;102098.50;;;18.31;48.49
15314;BME280;7757;52.626;4.746;2023-04-05T12:02:46;102089.97;;;18.34;48.62
15314;BME280;7757;52.626;4.746;2023-04-05T12:05:45;102085.63;;;18.33;48.68
15314;BME280;7757;52.626;4.746;2023-04-05T12:08:38;102075.41;;;18.42;48.44
15314;BME280;7757;52.626;4.746;2023-04-05T12:11:24;102087.91;;;18.42;48.68
15314;BME280;7757;52.626;4.746;2023-04-05T12:14:10;102086.91;;;18.50;48.99
15314;BME280;7757;52.626;4.746;2023-04-05T12:16:56;102085.25;;;18.56;49.06
15314;BME280;7757;52.626;4.746;2023-04-05T12:19:42;102076.28;;;18.49;49.03
15314;BME280;7757;52.626;4.746;2023-04-05T12:22:29;102072.91;;;18.47;49.17
15314;BME280;7757;52.626;4.746;2023-04-05T12:25:16;102067.06;;;18.43;49.02
15314;BME280;7757;52.626;4.746;2023-04-05T12:28:03;102062.91;;;18.40;49.33
15314;BME280;7757;52.626;4.746;2023-04-05T12:30:50;102065.00;;;18.45;49.28
15314;BME280;7757;52.626;4.746;2023-04-05T12:33:39;102063.56;;;18.49;49.08
15314;BME280;7757;52.626;4.746;2023-04-05T12:36:26;102063.94;;;18.46;49.42
15314;BME280;7757;52.626;4.746;2023-04-05T12:39:15;102060.66;;;18.51;49.46
15314;BME280;7757;52.626;4.746;2023-04-05T12:42:00;102060.66;;;18.51;49.34
15314;BME280;7757;52.626;4.746;2023-04-05T12:45:01;102055.63;;;18.54;49.56
15314;BME280;7757;52.626;4.746;2023-04-05T12:47:48;102053.34;;;18.51;49.32
15314;BME280;7757;52.626;4.746;2023-04-05T12:50:34;102059.59;;;18.52;49.31
15314;BME280;7757;52.626;4.746;2023-04-05T12:53:21;102064.81;;;18.53;49.30
15314;BME280;7757;52.626;4.746;2023-04-05T12:56:09;102051.28;;;18.53;49.20
15314;BME280;7757;52.626;4.746;2023-04-05T12:58:54;102047.72;;;18.53;49.49
15314;BME280;7757;52.626;4.746;2023-04-05T13:01:40;102049.59;;;18.52;49.27
15314;BME280;7757;52.626;4.746;2023-04-05T13:04:25;102043.75;;;18.55;49.11
15314;BME280;7757;52.626;4.746;2023-04-05T13:07:10;102036.06;;;18.59;49.24
15314;BME280;7757;52.626;4.746;2023-04-05T13:09:56;102042.72;;;18.56;49.13
15314;BME280;7757;52.626;4.746;2023-04-05T13:12:42;102030.22;;;18.55;49.11
15314;BME280;7757;52.626;4.746;2023-04-05T13:15:28;102035.63;;;18.55;48.96
15314;BME280;7757;52.626;4.746;2023-04-05T13:18:13;102032.94;;;18.55;48.81
15314;BME280;7757;52.626;4.746;2023-04-05T13:20:59;102026.47;;;18.50;48.76
15314;BME280;7757;52.626;4.746;2023-04-05T13:23:50;102028.16;;;18.51;49.02
15314;BME280;7757;52.626;4.746;2023-04-05T13:26:35;102002.06;;;18.43;48.62
15314;BME280;7757;52.626;4.746;2023-04-05T13:29:22;102014.56;;;18.44;47.70
15314;BME280;7757;52.626;4.746;2023-04-05T13:32:07;102005.41;;;18.38;46.19
15314;BME280;7757;52.626;4.746;2023-04-05T13:34:53;102012.69;;;18.45;45.99
15314;BME280;7757;52.626;4.746;2023-04-05T13:37:38;102006.63;;;18.42;45.55
15314;BME280;7757;52.626;4.746;2023-04-05T13:40:24;102012.28;;;18.41;45.19
15314;BME280;7757;52.626;4.746;2023-04-05T13:43:09;101997.69;;;18.42;45.00
15314;BME280;7757;52.626;4.746;2023-04-05T13:45:56;102006.03;;;18.40;44.60
15314;BME280;7757;52.626;4.746;2023-04-05T13:48:41;102000.00;;;18.38;44.14
15314;BME280;7757;52.626;4.746;2023-04-05T13:51:26;101993.13;;;18.36;44.65
15314;BME280;7757;52.626;4.746;2023-04-05T13:54:14;101988.91;;;18.33;43.96
15314;BME280;7757;52.626;4.746;2023-04-05T13:57:01;101985.00;;;18.36;43.35
15314;BME280;7757;52.626;4.746;2023-04-05T13:59:47;101977.47;;;18.38;43.37
15314;BME280;7757;52.626;4.746;2023-04-05T14:02:34;101982.47;;;18.41;43.46
15314;BME280;7757;52.626;4.746;2023-04-05T14:05:19;101984.75;;;18.37;43.17
15314;BME280;7757;52.626;4.746;2023-04-05T14:08:04;101980.81;;;18.27;43.77
15314;BME280;7757;52.626;4.746;2023-04-05T14:10:49;101969.56;;;18.23;43.25
15314;BME280;7757;52.626;4.746;2023-04-05T14:13:35;101973.31;;;18.29;43.32
15314;BME280;7757;52.626;4.746;2023-04-05T14:16:20;101958.94;;;18.22;42.80
15314;BME280;7757;52.626;4.746;2023-04-05T14:19:07;101951.44;;;18.24;42.57
15314;BME280;7757;52.626;4.746;2023-04-05T14:21:52;101961.44;;;18.30;42.94
15314;BME280;7757;52.626;4.746;2023-04-05T14:24:38;101955.19;;;18.29;42.87
15314;BME280;7757;52.626;4.746;2023-04-05T14:27:23;101954.13;;;18.30;42.87
15314;BME280;7757;52.626;4.746;2023-04-05T14:30:11;101950.38;;;18.31;42.19
15314;BME280;7757;52.626;4.746;2023-04-05T14:32:57;101942.28;;;18.18;42.86
15314;BME280;7757;52.626;4.746;2023-04-05T14:35:43;101943.50;;;18.16;42.83
15314;BME280;7757;52.626;4.746;2023-04-05T14:38:29;101946.03;;;18.17;43.67
15314;BME280;7757;52.626;4.746;2023-04-05T14:41:14;101942.91;;;18.20;42.52
15314;BME280;7757;52.626;4.746;2023-04-05T14:43:59;101944.34;;;18.23;43.58